This is the latest recevied weather packets stored in our database for station/object VK5KX. If no packets are shown the sender has not sent any weather packets the latest 10 day(s).
| Time | Temp. | Humidity | Pressure | Rain* | Wind** | Luminosity | Snow |
|---|---|---|---|---|---|---|---|
| 1778236203 | 14.44° C | 84% | 1030 hPa | 0 mm | - | - | - |
| 1778235301 | 14.44° C | 84% | 1030 hPa | 0 mm | - | - | - |
| 1778234400 | 15° C | 84% | 1029.9 hPa | 0 mm | - | - | - |
| 1778233560 | 15° C | 84% | 1029.9 hPa | 0 mm | - | - | - |
| 1778232660 | 15° C | 84% | 1029.8 hPa | 0 mm | - | - | - |
| 1778231774 | 15° C | 84% | 1029.7 hPa | 0 mm | - | - | - |
| 1778230860 | 15° C | 84% | 1029.8 hPa | 0 mm | - | - | - |
| 1778229958 | 15.56° C | 84% | 1029.6 hPa | 0 mm | - | - | - |
| 1778229058 | 15.56° C | 82% | 1029.5 hPa | 0 mm | - | - | - |
| 1778228173 | 15.56° C | 82% | 1029.4 hPa | 0 mm | - | - | - |
| 1778227261 | 16.11° C | 81% | 1029.3 hPa | 0 mm | - | - | - |
| 1778226367 | 16.67° C | 79% | 1029.2 hPa | 0 mm | - | - | - |
| 1778225457 | 16.67° C | 78% | 1029.2 hPa | 0 mm | - | - | - |
| 1778224556 | 16.67° C | 78% | 1029 hPa | 0 mm | - | - | - |
| 1778223656 | 16.67° C | 79% | 1029.1 hPa | 0 mm | - | - | - |
| 1778222756 | 17.22° C | 78% | 1029.1 hPa | 0 mm | - | - | - |
| 1778221858 | 17.22° C | 77% | 1029 hPa | 0 mm | - | - | - |
| 1778220953 | 17.78° C | 76% | 1029.1 hPa | 0.25 mm | - | - | - |
| 1778220066 | 17.78° C | 74% | 1029 hPa | 0.25 mm | - | - | - |
| 1778219198 | 17.78° C | 75% | 1029 hPa | 0.25 mm | - | - | - |
| 1778218254 | 17.78° C | 74% | 1029 hPa | 0.25 mm | - | - | - |
| 1778217353 | 17.78° C | 74% | 1029.1 hPa | 0 mm | - | - | - |
| 1778216449 | 17.78° C | 75% | 1029.1 hPa | 0 mm | - | - | - |
| 1778215545 | 17.22° C | 81% | 1029.2 hPa | 0 mm | - | - | - |
| 1778214642 | 16.67° C | 85% | 1029.4 hPa | 0.25 mm | - | - | - |
* Rain latest hour (hover to see other rain measurements)
** Current wind speed in m/s (hover to see current wind gust speed)